Time;durP1;ratioP1;P1;durP2;ratioP2;P2;SDS_P1;SDS_P2;PMS_P1;PMS_P2;Temp;Humidity;BMP_temperature;BMP_pressure;BME280_temperature;BME280_humidity;BME280_pressure;Samples;Min_cycle;Max_cycle;Signal;HPM_P1;HPM_P2
2023/05/26 00:00:58;;;;;;;1999.90;999.90;;;12.50;99.90;;;;;;5088995;28;20487;-69
2023/05/26 00:03:27;;;;;;;1999.90;999.90;;;12.50;99.90;;;;;;5090746;28;20494;-67
2023/05/26 00:05:54;;;;;;;1999.90;999.90;;;12.60;99.90;;;;;;5091254;28;20433;-69
2023/05/26 00:08:22;;;;;;;1999.90;999.90;;;12.60;99.90;;;;;;5084152;28;20461;-70
2023/05/26 00:10:49;;;;;;;1999.90;999.90;;;12.50;99.90;;;;;;5090719;28;20425;-70
2023/05/26 00:13:15;;;;;;;1999.90;999.90;;;12.50;99.90;;;;;;5091147;28;20976;-70
2023/05/26 00:15:42;;;;;;;1999.90;999.90;;;12.40;99.90;;;;;;5090366;28;20527;-71
2023/05/26 00:18:09;;;;;;;1999.90;999.90;;;12.30;99.90;;;;;;5081872;28;20422;-70
2023/05/26 00:20:36;;;;;;;1999.90;999.90;;;12.40;99.90;;;;;;5090654;28;20954;-70
2023/05/26 00:23:03;;;;;;;1999.90;999.90;;;12.40;99.90;;;;;;5090992;28;20426;-71
2023/05/26 00:25:30;;;;;;;1999.90;999.90;;;12.20;99.90;;;;;;5091004;28;20434;-70
2023/05/26 00:27:57;;;;;;;1999.90;999.90;;;12.10;99.90;;;;;;5089192;28;20448;-70
2023/05/26 00:30:24;;;;;;;1999.90;999.90;;;12.10;99.90;;;;;;5080549;28;20846;-71
2023/05/26 00:32:50;;;;;;;1999.90;999.90;;;12.00;99.90;;;;;;5087406;28;20479;-70
2023/05/26 00:35:17;;;;;;;1999.90;999.90;;;12.00;99.90;;;;;;5091197;28;20512;-69
2023/05/26 00:37:43;;;;;;;1999.90;999.90;;;12.10;99.90;;;;;;5089703;28;20453;-70
2023/05/26 00:40:11;;;;;;;1999.90;999.90;;;12.00;99.90;;;;;;5089421;28;20483;-70
2023/05/26 00:42:39;;;;;;;1999.90;999.90;;;12.10;99.90;;;;;;5090644;28;20507;-70
2023/05/26 00:45:07;;;;;;;1999.90;999.90;;;12.10;99.90;;;;;;5089650;28;20485;-71
2023/05/26 00:47:33;;;;;;;1999.90;999.90;;;12.00;99.90;;;;;;5090117;28;20466;-70
2023/05/26 00:50:00;;;;;;;1999.90;999.90;;;11.90;99.90;;;;;;5080657;28;20480;-72
2023/05/26 00:52:27;;;;;;;1999.90;999.90;;;11.90;99.90;;;;;;5088315;28;21176;-70
2023/05/26 00:54:54;;;;;;;1999.90;999.90;;;11.90;99.90;;;;;;5085533;28;20510;-70
2023/05/26 00:57:21;;;;;;;1999.90;999.90;;;11.80;99.90;;;;;;5085741;28;20426;-70
2023/05/26 00:59:50;;;;;;;1999.90;999.90;;;11.80;99.90;;;;;;5082929;28;20424;-70
2023/05/26 01:02:17;;;;;;;1999.90;999.90;;;11.80;99.90;;;;;;5090413;28;20437;-70
2023/05/26 01:04:44;;;;;;;1999.90;999.90;;;11.80;99.90;;;;;;5090182;28;20433;-70
2023/05/26 01:07:10;;;;;;;1999.90;999.90;;;11.70;99.90;;;;;;5085322;28;20426;-71
2023/05/26 01:09:37;;;;;;;1999.90;999.90;;;11.80;99.90;;;;;;5089620;28;20426;-71
2023/05/26 01:12:08;;;;;;;1999.90;999.90;;;11.70;99.90;;;;;;5086649;28;20483;-71
2023/05/26 01:14:44;;;;;;;1999.90;999.90;;;11.70;99.90;;;;;;5088804;28;20479;-70
2023/05/26 01:17:17;;;;;;;1999.90;999.90;;;11.80;99.90;;;;;;5083500;28;20429;-68
2023/05/26 01:20:00;;;;;;;1999.90;999.90;;;11.70;99.90;;;;;;5088722;28;20434;-69
2023/05/26 01:22:41;;;;;;;1999.90;999.90;;;11.70;99.90;;;;;;5084683;28;20927;-70
2023/05/26 01:25:23;;;;;;;1999.90;999.90;;;11.50;99.90;;;;;;5087789;28;20434;-71
2023/05/26 01:28:05;;;;;;;1999.90;999.90;;;11.50;99.90;;;;;;5081221;28;20536;-71
2023/05/26 01:30:32;;;;;;;1999.90;999.90;;;11.40;99.90;;;;;;5082752;28;20461;-71
2023/05/26 01:32:59;;;;;;;1999.90;999.90;;;11.30;99.90;;;;;;5088575;28;20422;-70
2023/05/26 01:35:26;;;;;;;1999.90;999.90;;;11.30;99.90;;;;;;5087079;28;20514;-70
2023/05/26 01:37:53;;;;;;;1999.90;999.90;;;11.30;99.90;;;;;;5082456;28;20469;-71
2023/05/26 01:40:20;;;;;;;1999.90;999.90;;;11.30;99.90;;;;;;5086725;28;20454;-72
2023/05/26 01:42:52;;;;;;;1999.90;999.90;;;11.30;99.90;;;;;;5085814;28;20483;-69
2023/05/26 01:45:24;;;;;;;1999.90;999.90;;;11.40;99.90;;;;;;5086456;28;20489;-69
2023/05/26 01:47:55;;;;;;;1999.90;999.90;;;11.40;99.90;;;;;;5077334;28;21026;-70
2023/05/26 01:50:27;;;;;;;1999.90;999.90;;;11.20;99.90;;;;;;5087103;28;20515;-70
2023/05/26 01:52:56;;;;;;;1999.90;999.90;;;11.20;99.90;;;;;;5084464;28;20433;-71
2023/05/26 01:55:26;;;;;;;1999.90;999.90;;;11.20;99.90;;;;;;5083004;28;20429;-71
2023/05/26 01:57:54;;;;;;;1999.90;999.90;;;11.30;99.90;;;;;;5082975;28;20427;-70
2023/05/26 02:00:26;;;;;;;1999.90;999.90;;;11.20;99.90;;;;;;5087619;28;20475;-71
2023/05/26 02:02:53;;;;;;;1999.90;999.90;;;11.20;99.90;;;;;;5088037;28;20492;-70
2023/05/26 02:05:19;;;;;;;1999.90;999.90;;;11.20;99.90;;;;;;5086384;28;20463;-70
2023/05/26 02:07:46;;;;;;;1999.90;999.90;;;11.20;99.90;;;;;;5088693;28;20434;-71
2023/05/26 02:10:13;;;;;;;1999.90;999.90;;;11.10;99.90;;;;;;5087840;28;20455;-71
2023/05/26 02:12:40;;;;;;;1999.90;999.90;;;11.00;99.90;;;;;;5089158;28;20532;-70
2023/05/26 02:15:08;;;;;;;1999.90;999.90;;;11.00;99.90;;;;;;5086524;28;20859;-70
2023/05/26 02:17:35;;;;;;;1999.90;999.90;;;10.80;99.90;;;;;;5088657;28;20459;-69
2023/05/26 02:20:03;;;;;;;1999.90;999.90;;;10.60;99.90;;;;;;5086275;28;20483;-70
2023/05/26 02:22:30;;;;;;;1999.90;999.90;;;10.60;99.90;;;;;;5087734;28;20434;-70
2023/05/26 02:24:57;;;;;;;1999.90;999.90;;;10.40;99.90;;;;;;5085083;28;20432;-70
2023/05/26 02:27:23;;;;;;;1999.90;999.90;;;10.40;99.90;;;;;;5087976;28;20523;-71
2023/05/26 02:29:50;;;;;;;1999.90;999.90;;;10.40;99.90;;;;;;5085090;28;20426;-71
2023/05/26 02:32:17;;;;;;;1999.90;999.90;;;10.50;99.90;;;;;;5087316;28;20422;-70
2023/05/26 02:34:45;;;;;;;1999.90;999.90;;;10.50;99.90;;;;;;5082969;28;20925;-70
2023/05/26 02:37:11;;;;;;;1999.90;999.90;;;10.50;99.90;;;;;;5085990;28;20429;-70
2023/05/26 02:39:38;;;;;;;1999.90;999.90;;;10.40;99.90;;;;;;5087385;28;20892;-70
2023/05/26 02:42:06;;;;;;;1999.90;999.90;;;10.40;99.90;;;;;;5088452;28;20429;-71
2023/05/26 02:44:33;;;;;;;1999.90;999.90;;;10.40;99.90;;;;;;5087860;28;20803;-70
2023/05/26 02:47:00;;;;;;;1999.90;999.90;;;10.30;99.90;;;;;;5078372;28;20430;-72
2023/05/26 02:49:26;;;;;;;1999.90;999.90;;;10.20;99.90;;;;;;5086903;28;20539;-70
2023/05/26 02:51:54;;;;;;;1999.90;999.90;;;10.10;99.90;;;;;;5088300;28;20453;-71
2023/05/26 02:54:21;;;;;;;1999.90;999.90;;;10.10;99.90;;;;;;5085647;28;20457;-70
2023/05/26 02:56:47;;;;;;;1999.90;999.90;;;10.20;99.90;;;;;;5087758;28;20430;-70
2023/05/26 02:59:14;;;;;;;1999.90;999.90;;;10.20;99.90;;;;;;5086315;28;20934;-71
2023/05/26 03:01:41;;;;;;;1999.90;999.90;;;10.10;99.90;;;;;;5086195;28;20433;-70
2023/05/26 03:04:07;;;;;;;1999.90;999.90;;;10.10;99.90;;;;;;5082411;28;20428;-70
2023/05/26 03:06:34;;;;;;;1999.90;999.90;;;10.10;99.90;;;;;;5087483;28;20931;-71
2023/05/26 03:09:02;;;;;;;1999.90;999.90;;;10.20;99.90;;;;;;5085427;28;20422;-71
2023/05/26 03:11:29;;;;;;;1999.90;999.90;;;10.10;99.90;;;;;;5087941;28;20437;-70
2023/05/26 03:13:55;;;;;;;1999.90;999.90;;;10.10;99.90;;;;;;5081832;28;20427;-71
2023/05/26 03:16:23;;;;;;;1999.90;999.90;;;10.00;99.90;;;;;;5078688;28;20519;-70
2023/05/26 03:18:50;;;;;;;1999.90;999.90;;;10.10;99.90;;;;;;5087764;28;20556;-70
2023/05/26 03:21:17;;;;;;;1999.90;999.90;;;10.10;99.90;;;;;;5084342;28;20430;-70
2023/05/26 03:23:43;;;;;;;1999.90;999.90;;;10.10;99.90;;;;;;5081006;28;20434;-71
2023/05/26 03:26:11;;;;;;;1999.90;999.90;;;10.10;99.90;;;;;;5084622;28;20508;-70
2023/05/26 03:28:38;;;;;;;1999.90;999.90;;;10.20;99.90;;;;;;5087831;28;20431;-68
2023/05/26 03:31:05;;;;;;;1999.90;999.90;;;10.10;99.90;;;;;;5082668;28;20514;-70
2023/05/26 03:33:32;;;;;;;1999.90;999.90;;;10.20;99.90;;;;;;5084027;28;20445;-71
2023/05/26 03:35:59;;;;;;;1999.90;999.90;;;10.10;99.90;;;;;;5090252;28;20518;-68
2023/05/26 03:38:26;;;;;;;1999.90;999.90;;;10.10;99.90;;;;;;5092221;28;20791;-69
2023/05/26 03:40:52;;;;;;;1999.90;999.90;;;10.20;99.90;;;;;;5084387;28;20421;-69
2023/05/26 03:43:20;;;;;;;1999.90;999.90;;;10.30;99.90;;;;;;5079886;28;20431;-69
2023/05/26 03:45:47;;;;;;;1999.90;999.90;;;10.40;99.90;;;;;;5090182;28;20425;-69
2023/05/26 03:48:14;;;;;;;1999.90;999.90;;;10.50;99.90;;;;;;5089534;28;20833;-67
2023/05/26 03:50:43;;;;;;;1999.90;999.90;;;10.80;99.90;;;;;;5091422;28;20421;-68
2023/05/26 03:53:10;;;;;;;1999.90;999.90;;;10.90;99.90;;;;;;5083855;28;20432;-70
2023/05/26 03:55:37;;;;;;;1999.90;999.90;;;11.00;99.90;;;;;;5090720;28;20426;-70
2023/05/26 03:58:04;;;;;;;1999.90;999.90;;;11.00;99.90;;;;;;5089437;28;20811;-71
2023/05/26 04:00:32;;;;;;;1999.90;999.90;;;10.90;99.90;;;;;;5090759;28;20919;-70
2023/05/26 04:02:58;;;;;;;1999.90;999.90;;;10.80;99.90;;;;;;5088632;28;20516;-68
2023/05/26 04:05:25;;;;;;;1999.90;999.90;;;10.80;99.90;;;;;;5091841;28;20435;-70
2023/05/26 04:07:52;;;;;;;1999.90;999.90;;;10.70;99.90;;;;;;5090627;28;20437;-70
2023/05/26 04:10:19;;;;;;;1999.90;999.90;;;10.70;99.90;;;;;;5086067;28;20998;-70
2023/05/26 04:12:45;;;;;;;1999.90;999.90;;;10.70;99.90;;;;;;5085248;28;20434;-70
2023/05/26 04:15:12;;;;;;;1999.90;999.90;;;10.70;99.90;;;;;;5091305;28;20434;-71
2023/05/26 04:17:41;;;;;;;1999.90;999.90;;;10.80;99.90;;;;;;5091048;28;20483;-69
2023/05/26 04:20:10;;;;;;;1999.90;999.90;;;10.80;99.90;;;;;;5090947;28;20482;-68
2023/05/26 04:22:36;;;;;;;1999.90;999.90;;;10.80;99.90;;;;;;5083682;28;20526;-70
2023/05/26 04:25:04;;;;;;;1999.90;999.90;;;10.90;99.90;;;;;;5090411;28;20776;-69
2023/05/26 04:27:31;;;;;;;1999.90;999.90;;;10.90;99.90;;;;;;5089775;28;20896;-69
2023/05/26 04:30:00;;;;;;;1999.90;999.90;;;10.90;99.90;;;;;;5025801;22;20459;-75
2023/05/26 04:32:27;;;;;;;1999.90;999.90;;;10.80;99.90;;;;;;4972610;28;20456;-72
2023/05/26 04:34:55;;;;;;;1999.90;999.90;;;10.80;99.90;;;;;;4977347;28;20462;-73
2023/05/26 04:37:22;;;;;;;1999.90;999.90;;;10.90;99.90;;;;;;5007602;28;20983;-75
2023/05/26 04:39:49;;;;;;;1999.90;999.90;;;10.90;99.90;;;;;;4983574;28;20515;-71
2023/05/26 04:42:16;;;;;;;1999.90;999.90;;;11.00;99.90;;;;;;4982745;28;20446;-73
2023/05/26 04:44:43;;;;;;;1999.90;999.90;;;11.10;99.90;;;;;;4983590;28;20440;-72
2023/05/26 04:47:10;;;;;;;1999.90;999.90;;;11.10;99.90;;;;;;4971071;28;20468;-72
2023/05/26 04:49:36;;;;;;;1999.90;999.90;;;11.20;99.90;;;;;;4986661;28;20435;-73
2023/05/26 04:52:05;;;;;;;1999.90;999.90;;;11.00;99.90;;;;;;4992334;28;20490;-71
2023/05/26 04:54:34;;;;;;;1999.90;999.90;;;10.90;99.90;;;;;;4974147;28;20444;-71
2023/05/26 04:57:01;;;;;;;1999.90;999.90;;;10.90;99.90;;;;;;4986316;28;20476;-75
2023/05/26 04:59:29;;;;;;;1999.90;999.90;;;11.00;99.90;;;;;;4967189;28;20439;-75
2023/05/26 05:01:56;;;;;;;1999.90;999.90;;;11.10;99.90;;;;;;4988109;28;20444;-74
2023/05/26 05:04:22;;;;;;;1999.90;999.90;;;11.20;99.90;;;;;;4975738;28;20865;-76
2023/05/26 05:06:49;;;;;;;1999.90;999.90;;;11.20;99.90;;;;;;5002207;28;20432;-75
2023/05/26 05:09:17;;;;;;;1999.90;999.90;;;11.30;99.90;;;;;;5037121;28;20449;-72
2023/05/26 05:11:44;;;;;;;1999.90;999.90;;;11.30;99.90;;;;;;4974667;28;20440;-75
2023/05/26 05:14:11;;;;;;;1999.90;999.90;;;11.30;99.90;;;;;;4977628;28;20468;-76
2023/05/26 05:16:37;;;;;;;1999.90;999.90;;;11.40;99.90;;;;;;4976090;28;21012;-75
2023/05/26 05:19:04;;;;;;;1999.90;999.90;;;11.30;99.90;;;;;;4973834;28;20690;-75
2023/05/26 05:21:30;;;;;;;1999.90;999.90;;;11.30;99.90;;;;;;4983664;28;20435;-74
2023/05/26 05:23:57;;;;;;;1999.90;999.90;;;11.30;99.90;;;;;;5009173;28;20438;-74
2023/05/26 05:26:25;;;;;;;1999.90;999.90;;;11.30;99.90;;;;;;4977709;28;20443;-75
2023/05/26 05:28:52;;;;;;;1999.90;999.90;;;11.20;99.90;;;;;;4972694;28;20506;-75
2023/05/26 05:31:18;;;;;;;1999.90;999.90;;;11.10;99.90;;;;;;4977592;28;20464;-74
2023/05/26 05:33:45;;;;;;;1999.90;999.90;;;11.20;99.90;;;;;;4976845;28;20434;-74
2023/05/26 05:36:11;;;;;;;1999.90;999.90;;;11.20;99.90;;;;;;4968618;28;20436;-74
2023/05/26 05:38:38;;;;;;;1999.90;999.90;;;11.40;99.90;;;;;;5008726;28;20436;-73
2023/05/26 05:41:05;;;;;;;1999.90;999.90;;;11.50;99.90;;;;;;4970720;28;20521;-74
2023/05/26 05:43:33;;;;;;;1999.90;999.90;;;11.50;99.90;;;;;;4977500;28;20936;-74
2023/05/26 05:46:00;;;;;;;1999.90;999.90;;;11.40;99.90;;;;;;4974045;28;20580;-74
2023/05/26 05:48:26;;;;;;;1999.90;999.90;;;11.50;99.90;;;;;;5006479;28;20443;-73
2023/05/26 05:50:53;;;;;;;1999.90;999.90;;;11.70;99.90;;;;;;4971468;28;20440;-76
2023/05/26 05:53:19;;;;;;;1999.90;999.90;;;11.80;99.90;;;;;;4972361;28;21012;-74
2023/05/26 05:55:46;;;;;;;1999.90;999.90;;;11.70;99.90;;;;;;4971811;28;20444;-75
2023/05/26 05:58:13;;;;;;;1999.90;999.90;;;11.70;99.90;;;;;;4977460;28;20949;-75
2023/05/26 06:00:41;;;;;;;1999.90;999.90;;;11.90;99.90;;;;;;5021042;28;20473;-71
2023/05/26 06:03:08;;;;;;;1999.90;999.90;;;12.00;99.90;;;;;;5021749;28;20435;-73
2023/05/26 06:05:35;;;;;;;1999.90;999.90;;;12.00;99.90;;;;;;4969500;28;20439;-73
2023/05/26 06:08:02;;;;;;;1999.90;999.90;;;12.10;99.90;;;;;;4972266;28;20443;-71
2023/05/26 06:10:28;;;;;;;1999.90;999.90;;;12.20;99.90;;;;;;4982901;28;20436;-74
2023/05/26 06:12:55;;;;;;;1999.90;999.90;;;12.20;99.90;;;;;;4977636;28;20434;-74
2023/05/26 06:15:21;;;;;;;1999.90;999.90;;;12.30;99.90;;;;;;4981572;28;20865;-73
2023/05/26 06:17:49;;;;;;;1999.90;999.90;;;12.60;99.90;;;;;;4973553;28;20466;-74
2023/05/26 06:20:16;;;;;;;1999.90;999.90;;;12.70;99.90;;;;;;4969355;28;20555;-72
2023/05/26 06:22:43;;;;;;;1999.90;999.90;;;12.80;99.90;;;;;;4989307;28;20442;-71
2023/05/26 06:25:09;;;;;;;1999.90;999.90;;;13.10;99.90;;;;;;5010128;28;20507;-73
2023/05/26 06:27:37;;;;;;;1999.90;999.90;;;12.80;99.90;;;;;;4997578;28;20532;-74
2023/05/26 06:30:04;;;;;;;1999.90;999.90;;;12.70;99.90;;;;;;4961593;28;20522;-71
2023/05/26 06:32:30;;;;;;;1999.90;999.90;;;12.80;99.90;;;;;;4969183;28;20441;-74
2023/05/26 06:34:58;;;;;;;1999.90;999.90;;;12.80;99.90;;;;;;4999434;28;20512;-74
2023/05/26 06:37:25;;;;;;;1999.90;999.90;;;12.70;99.90;;;;;;5030526;28;20854;-71
2023/05/26 06:39:52;;;;;;;1999.90;999.90;;;12.60;99.90;;;;;;5069962;28;20454;-74
2023/05/26 06:42:18;;;;;;;1999.90;999.90;;;12.50;99.90;;;;;;5049547;28;20795;-74
2023/05/26 06:44:45;;;;;;;1999.90;999.90;;;12.70;99.90;;;;;;4968781;28;20428;-75
2023/05/26 06:47:11;;;;;;;1999.90;999.90;;;12.60;99.90;;;;;;4967081;28;20440;-75
2023/05/26 06:49:38;;;;;;;1999.90;999.90;;;12.60;99.90;;;;;;5002322;28;20424;-73
2023/05/26 06:52:06;;;;;;;1999.90;999.90;;;12.70;99.90;;;;;;4969117;28;20960;-75
2023/05/26 06:54:33;;;;;;;1999.90;999.90;;;12.70;99.90;;;;;;4969698;28;20493;-74
2023/05/26 06:57:00;;;;;;;1999.90;999.90;;;12.70;99.90;;;;;;4969137;28;20447;-74
2023/05/26 06:59:27;;;;;;;1999.90;999.90;;;12.60;99.90;;;;;;4967515;28;20448;-73
2023/05/26 07:01:54;;;;;;;1999.90;999.90;;;12.70;99.90;;;;;;4968960;28;20612;-73
2023/05/26 07:04:20;;;;;;;1999.90;999.90;;;12.80;99.90;;;;;;4968939;28;20427;-74
2023/05/26 07:06:47;;;;;;;1999.90;999.90;;;12.80;99.90;;;;;;4968356;28;20415;-74
2023/05/26 07:09:15;;;;;;;1999.90;999.90;;;12.80;99.90;;;;;;4968881;28;20474;-74
2023/05/26 07:11:41;;;;;;;1999.90;999.90;;;13.10;99.90;;;;;;4968877;28;20489;-72
2023/05/26 07:14:08;;;;;;;1999.90;999.90;;;13.20;99.90;;;;;;5024560;28;20448;-75
2023/05/26 07:16:34;;;;;;;1999.90;999.90;;;13.10;99.90;;;;;;4974174;28;20487;-75
2023/05/26 07:19:01;;;;;;;1999.90;999.90;;;13.20;99.90;;;;;;4969025;28;20552;-74
2023/05/26 07:21:28;;;;;;;1999.90;999.90;;;13.40;99.90;;;;;;4970746;28;20490;-74
2023/05/26 07:23:55;;;;;;;1999.90;999.90;;;13.60;99.90;;;;;;5042817;28;20421;-72
2023/05/26 07:26:23;;;;;;;1999.90;999.90;;;14.00;99.90;;;;;;5001535;28;20419;-74
2023/05/26 07:28:51;;;;;;;1999.90;999.90;;;14.10;99.90;;;;;;4991277;28;20460;-75
2023/05/26 07:31:19;;;;;;;1999.90;999.90;;;14.10;99.90;;;;;;4991158;28;20415;-74
2023/05/26 07:33:47;;;;;;;1999.90;999.90;;;14.20;99.90;;;;;;4978449;28;20440;-75
2023/05/26 07:36:13;;;;;;;1999.90;999.90;;;14.50;99.90;;;;;;4971238;28;21079;-72
2023/05/26 07:38:40;;;;;;;1999.90;999.90;;;14.30;99.90;;;;;;4971893;28;20477;-74
2023/05/26 07:41:07;;;;;;;1999.90;999.90;;;14.10;99.90;;;;;;4971717;28;20504;-75
2023/05/26 07:43:34;;;;;;;1999.90;999.90;;;14.20;99.90;;;;;;4971850;28;20485;-70
2023/05/26 07:46:01;;;;;;;1999.90;999.90;;;14.30;99.90;;;;;;4970112;28;20482;-75
2023/05/26 07:48:28;;;;;;;1999.90;999.90;;;14.20;99.90;;;;;;4971159;28;20894;-73
2023/05/26 07:50:54;;;;;;;1999.90;999.90;;;14.40;99.90;;;;;;4971477;28;20470;-71
2023/05/26 07:53:21;;;;;;;1999.90;999.90;;;14.50;99.90;;;;;;4972048;28;20428;-75
2023/05/26 07:55:48;;;;;;;1999.90;999.90;;;14.50;99.90;;;;;;4971888;28;20545;-74
2023/05/26 07:58:14;;;;;;;1999.90;999.90;;;14.90;99.90;;;;;;4969919;28;20470;-71
2023/05/26 08:00:42;;;;;;;1999.90;999.90;;;14.90;99.90;;;;;;4971143;28;20464;-75
2023/05/26 08:03:09;;;;;;;1999.90;999.90;;;15.10;99.90;;;;;;4971338;28;20477;-75
2023/05/26 08:05:35;;;;;;;1999.90;999.90;;;15.20;99.90;;;;;;4971546;28;20464;-75
2023/05/26 08:08:02;;;;;;;1999.90;999.90;;;15.10;99.90;;;;;;4971318;28;20420;-75
2023/05/26 08:10:29;;;;;;;1999.90;999.90;;;15.30;99.90;;;;;;4969892;28;21018;-74
2023/05/26 08:12:55;;;;;;;1999.90;999.90;;;15.10;99.90;;;;;;4971228;28;20481;-74
2023/05/26 08:15:24;;;;;;;1999.90;999.90;;;15.30;99.90;;;;;;4971131;28;20435;-75
2023/05/26 08:17:52;;;;;;;1999.90;999.90;;;15.40;99.90;;;;;;4970840;28;20894;-75
2023/05/26 08:20:18;;;;;;;1999.90;999.90;;;15.80;99.90;;;;;;4970226;28;20429;-71
2023/05/26 08:22:45;;;;;;;1999.90;999.90;;;15.70;99.90;;;;;;4970089;28;20871;-74
2023/05/26 08:25:12;;;;;;;1999.90;999.90;;;15.90;99.90;;;;;;4971320;28;20420;-73
2023/05/26 08:27:39;;;;;;;1999.90;999.90;;;15.80;99.90;;;;;;4970963;28;20420;-74
2023/05/26 08:30:07;;;;;;;1999.90;999.90;;;15.70;99.90;;;;;;4970450;28;20420;-74
2023/05/26 08:32:34;;;;;;;1999.90;999.90;;;15.50;99.90;;;;;;4970166;28;20473;-71
2023/05/26 08:35:03;;;;;;;1999.90;999.90;;;15.50;99.90;;;;;;4969317;28;20444;-72
2023/05/26 08:37:30;;;;;;;1999.90;999.90;;;15.40;99.90;;;;;;4977726;28;20456;-76
2023/05/26 08:39:57;;;;;;;1999.90;999.90;;;15.10;99.90;;;;;;4973428;28;20436;-73
2023/05/26 08:42:28;;;;;;;1999.90;999.90;;;15.10;99.90;;;;;;4967470;28;20446;-73
2023/05/26 08:44:55;;;;;;;1999.90;999.90;;;15.10;99.90;;;;;;4966634;28;20450;-75
2023/05/26 08:47:23;;;;;;;1999.90;999.90;;;15.30;99.90;;;;;;4968830;28;20444;-73
2023/05/26 08:49:54;;;;;;;1999.90;999.90;;;15.30;99.90;;;;;;4967709;28;20436;-73
2023/05/26 08:52:23;;;;;;;1999.90;999.90;;;15.50;99.90;;;;;;4969113;28;20438;-72
2023/05/26 08:54:50;;;;;;;1999.90;999.90;;;15.70;99.90;;;;;;4969555;28;20802;-73
2023/05/26 08:57:20;;;;;;;1999.90;999.90;;;16.10;99.90;;;;;;4968017;28;20443;-72
2023/05/26 08:59:48;;;;;;;1999.90;999.90;;;16.10;99.90;;;;;;4964490;28;20444;-72
2023/05/26 09:02:15;;;;;;;1999.90;999.90;;;15.90;99.90;;;;;;4970779;28;20826;-73
2023/05/26 09:04:42;;;;;;;1999.90;999.90;;;15.50;99.90;;;;;;4994044;28;20938;-75
2023/05/26 09:07:09;;;;;;;1999.90;999.90;;;15.40;99.90;;;;;;4970369;28;20424;-72
2023/05/26 09:09:37;;;;;;;1999.90;999.90;;;15.50;99.90;;;;;;4969817;28;20429;-73
2023/05/26 09:12:10;;;;;;;1999.90;999.90;;;15.80;99.90;;;;;;5010799;28;22539;-73
2023/05/26 09:14:37;;;;;;;1999.90;999.90;;;15.90;99.90;;;;;;4978888;28;20447;-72
2023/05/26 09:17:04;;;;;;;1999.90;999.90;;;15.90;99.90;;;;;;4989135;28;20532;-71
2023/05/26 09:19:32;;;;;;;1999.90;999.90;;;15.80;99.90;;;;;;4976498;28;20508;-73
2023/05/26 09:22:06;;;;;;;1999.90;999.90;;;16.00;99.90;;;;;;5048159;28;20925;-74
2023/05/26 09:24:45;;;;;;;1999.90;999.90;;;16.00;99.90;;;;;;4981276;28;20437;-75
2023/05/26 09:27:18;;;;;;;1999.90;999.90;;;15.80;99.90;;;;;;4970103;28;20435;-76
2023/05/26 09:29:48;;;;;;;1999.90;999.90;;;15.70;99.90;;;;;;4969631;28;20420;-76
2023/05/26 09:32:15;;;;;;;1999.90;999.90;;;15.80;99.90;;;;;;4969519;28;20439;-73
2023/05/26 09:34:42;;;;;;;1999.90;999.90;;;16.00;99.90;;;;;;4969961;28;20428;-73
2023/05/26 09:37:09;;;;;;;1999.90;999.90;;;16.40;99.90;;;;;;4970035;28;20848;-73
2023/05/26 09:39:36;;;;;;;1999.90;999.90;;;16.80;99.90;;;;;;4974978;28;20445;-69
2023/05/26 09:42:07;;;;;;;1999.90;999.90;;;16.90;99.90;;;;;;4976823;28;20867;-73
2023/05/26 09:44:34;;;;;;;1999.90;999.90;;;16.80;99.90;;;;;;5013052;28;20548;-73
2023/05/26 09:47:01;;;;;;;1999.90;999.90;;;16.90;99.90;;;;;;5015761;28;20429;-73
2023/05/26 09:49:28;;;;;;;1999.90;999.90;;;17.00;99.90;;;;;;4980495;28;20455;-73
2023/05/26 09:51:55;;;;;;;1999.90;999.90;;;17.00;99.90;;;;;;4980676;28;20427;-72
2023/05/26 09:54:21;;;;;;;1999.90;999.90;;;16.80;99.90;;;;;;5033612;28;20497;-73
2023/05/26 09:56:52;;;;;;;1999.90;999.90;;;16.60;99.90;;;;;;5000504;28;20819;-75
2023/05/26 09:59:21;;;;;;;1999.90;999.90;;;16.60;99.90;;;;;;4965473;28;20436;-73
2023/05/26 10:01:49;;;;;;;1999.90;999.90;;;16.80;99.90;;;;;;4970350;28;20435;-73
2023/05/26 10:04:16;;;;;;;1999.90;999.90;;;16.90;99.90;;;;;;4969639;28;20564;-69
2023/05/26 10:06:44;;;;;;;1999.90;999.90;;;17.00;99.90;;;;;;5028541;28;20440;-73
2023/05/26 10:09:12;;;;;;;1999.90;999.90;;;17.10;99.90;;;;;;4994959;28;20834;-74
2023/05/26 10:11:42;;;;;;;1999.90;999.90;;;17.00;99.90;;;;;;4968502;28;20448;-73
2023/05/26 10:14:09;;;;;;;1999.90;999.90;;;17.20;99.90;;;;;;4964113;28;20448;-73
2023/05/26 10:16:39;;;;;;;1999.90;999.90;;;17.40;99.90;;;;;;5004012;28;21010;-72
2023/05/26 10:19:08;;;;;;;1999.90;999.90;;;17.40;99.90;;;;;;4985741;28;21487;-74
2023/05/26 10:21:38;;;;;;;1999.90;999.90;;;17.40;99.90;;;;;;4980315;28;20434;-70
2023/05/26 10:24:10;;;;;;;1999.90;999.90;;;17.70;99.90;;;;;;4967941;28;20856;-74
2023/05/26 10:26:45;;;;;;;1999.90;999.90;;;17.90;99.90;;;;;;4974025;28;20549;-73
2023/05/26 10:29:18;;;;;;;1999.90;999.90;;;17.70;99.90;;;;;;4986019;28;20435;-74
2023/05/26 10:31:46;;;;;;;1999.90;999.90;;;17.40;99.90;;;;;;5059949;22;20497;-73
2023/05/26 10:34:14;;;;;;;1999.90;999.90;;;17.40;99.90;;;;;;5072812;28;20411;-72
2023/05/26 10:36:42;;;;;;;1999.90;999.90;;;17.50;99.90;;;;;;5071453;28;20894;-72
2023/05/26 10:39:12;;;;;;;1999.90;999.90;;;17.70;99.90;;;;;;5067998;28;20438;-75
2023/05/26 10:41:40;;;;;;;1999.90;999.90;;;17.90;99.90;;;;;;5067917;28;21079;-76
2023/05/26 10:44:40;;;;;;;1999.90;999.90;;;17.90;99.90;;;;;;5068587;28;20493;-76
2023/05/26 10:47:13;;;;;;;1999.90;999.90;;;17.70;99.90;;;;;;5067530;28;20439;-75
2023/05/26 10:49:39;;;;;;;1999.90;999.90;;;18.00;99.90;;;;;;5068892;28;20921;-77
2023/05/26 10:52:10;;;;;;;1999.90;999.90;;;18.20;99.90;;;;;;5068451;28;20473;-75
2023/05/26 10:54:37;;;;;;;1999.90;999.90;;;18.00;99.90;;;;;;5067731;28;20428;-77
2023/05/26 10:57:04;;;;;;;1999.90;999.90;;;17.80;99.90;;;;;;5067533;28;21093;-76
2023/05/26 10:59:33;;;;;;;1999.90;999.90;;;18.00;99.90;;;;;;5067511;28;20543;-75
2023/05/26 11:02:03;;;;;;;1999.90;999.90;;;18.30;99.90;;;;;;5067113;28;20457;-75
2023/05/26 11:04:42;;;;;;;1999.90;999.90;;;18.10;99.90;;;;;;5069298;28;20438;-77
2023/05/26 11:07:16;;;;;;;1999.90;999.90;;;17.70;99.90;;;;;;5070180;28;20415;-74
2023/05/26 11:09:57;;;;;;;1999.90;999.90;;;17.60;99.90;;;;;;5069791;28;20416;-75
2023/05/26 11:12:24;;;;;;;1999.90;999.90;;;17.80;99.90;;;;;;5070077;28;20418;-75
2023/05/26 11:14:50;;;;;;;1999.90;999.90;;;18.10;99.90;;;;;;5068778;28;20962;-73
2023/05/26 11:17:19;;;;;;;1999.90;999.90;;;18.30;99.90;;;;;;5055036;28;20448;-74
2023/05/26 11:19:58;;;;;;;1999.90;999.90;;;18.70;99.90;;;;;;5050118;28;20445;-73
2023/05/26 11:22:26;;;;;;;1999.90;999.90;;;18.90;99.90;;;;;;5051425;28;20483;-73
2023/05/26 11:24:56;;;;;;;1999.90;999.90;;;18.60;99.90;;;;;;5051355;28;20787;-73
2023/05/26 11:27:26;;;;;;;1999.90;999.90;;;18.50;99.90;;;;;;5050201;28;20443;-72
2023/05/26 11:29:59;;;;;;;1999.90;999.90;;;18.80;99.90;;;;;;5061269;28;20415;-72
2023/05/26 11:32:25;;;;;;;1999.90;999.90;;;19.20;99.90;;;;;;5066974;28;20442;-72
2023/05/26 11:34:53;;;;;;;1999.90;999.90;;;19.50;99.90;;;;;;5067757;28;20906;-74
2023/05/26 11:37:22;;;;;;;1999.90;999.90;;;19.50;99.90;;;;;;5067816;28;20497;-74
2023/05/26 11:39:49;;;;;;;1999.90;999.90;;;19.50;99.90;;;;;;5068161;28;20806;-71
2023/05/26 11:42:16;;;;;;;1999.90;999.90;;;19.20;99.90;;;;;;5064134;28;20459;-74
2023/05/26 11:44:44;;;;;;;1999.90;999.90;;;19.30;99.90;;;;;;5067959;28;20492;-74
2023/05/26 11:47:14;;;;;;;1999.90;999.90;;;19.40;99.70;;;;;;5068098;28;20431;-72
2023/05/26 11:49:45;;;;;;;1999.90;999.90;;;19.20;99.70;;;;;;5066656;28;20433;-74
2023/05/26 11:52:16;;;;;;;1999.90;999.90;;;19.30;99.90;;;;;;5063269;28;20842;-73
2023/05/26 11:54:42;;;;;;;1999.90;999.90;;;19.30;99.90;;;;;;5068440;28;20455;-74
2023/05/26 11:57:23;;;;;;;1999.90;999.90;;;19.40;99.90;;;;;;5071508;28;20423;-75
2023/05/26 11:59:52;;;;;;;1999.90;999.90;;;19.30;99.90;;;;;;5070323;28;20427;-74
2023/05/26 12:02:19;;;;;;;1999.90;999.90;;;19.30;99.60;;;;;;5073535;28;20423;-72